397  
SXUS55 KTFX 141431  
OSOTFX  
 
AREA AWOS OBSERVATIONS  
NATIONAL WEATHER SERVICE GREAT FALLS MT  
830 AM MDT FRI MAY 14 2021  
 
METAR KCII 141425Z AUTO 01003KT 10SM 11/04 A3015 RMK A01 CHOTEAU  
METAR K6S0 141425Z AUTO 28006KT 10SM FEW090 10/04 A3015 RMK A01 BIG TIMBER  
METAR K6S8 141425Z AUTO 00000KT 10SM 10/07 A3013 RMK A01 LAUREL  
METAR K7S0 141425Z AUTO 05003KT 10SM 11/06 A3010 RMK A01 RONAN  
METAR K4U6 141425Z AUTO 00000KT 10SM 13/06 A3008 RMK A01 CIRCLE  
METAR K00U 141425Z AUTO 00000KT 10SM SCT110 11/07 A3011 RMK A01 HARDIN  
METAR KPWD 141425Z AUTO 00000KT 10SM CLR 14/02 A3008 RMK A01 PLENTYWOOD  
 
CLICK HERE TO GO TO PREVIOUS BULLETINS.

The Nexlab MT Page Main Text Page